createdAt,value
2023-04-02T00:00:49.743Z,224.10
2023-04-02T00:01:49.740Z,225.95
2023-04-02T00:02:49.764Z,228.62
2023-04-02T00:03:49.685Z,230.54
2023-04-02T00:04:49.765Z,232.65
2023-04-02T00:05:49.660Z,236.67
2023-04-02T00:06:49.676Z,239.59
2023-04-02T00:07:49.597Z,243.49
2023-04-02T00:08:49.628Z,246.04
2023-04-02T00:09:49.574Z,248.07
2023-04-02T00:10:49.560Z,249.77
2023-04-02T00:11:49.559Z,253.03
2023-04-02T00:12:49.559Z,254.79
2023-04-02T00:13:49.515Z,259.41
2023-04-02T00:14:49.520Z,263.35
2023-04-02T00:15:49.494Z,266.11
2023-04-02T00:16:49.573Z,271.38
2023-04-02T00:17:49.549Z,273.18
2023-04-02T00:18:49.470Z,275.23
2023-04-02T00:19:49.466Z,277.09
2023-04-02T00:20:49.450Z,280.15
2023-04-02T00:21:49.434Z,280.15
2023-04-02T00:22:49.451Z,281.35
2023-04-02T00:23:49.386Z,281.11
2023-04-02T00:24:49.396Z,279.44
2023-04-02T00:25:49.372Z,282.31
2023-04-02T00:26:49.346Z,283.53
2023-04-02T00:27:49.353Z,284.26
2023-04-02T00:28:49.339Z,286.98
2023-04-02T00:29:49.326Z,284.51
2023-04-02T00:30:49.328Z,286.73
2023-04-02T00:31:49.321Z,287.99
2023-04-02T00:32:49.315Z,288.24
2023-04-02T00:33:49.329Z,290.53
2023-04-02T00:34:49.292Z,291.04
2023-04-02T00:35:49.267Z,293.38
2023-04-02T00:36:49.267Z,293.64
2023-04-02T00:37:49.203Z,292.85
2023-04-02T00:38:49.211Z,293.64
2023-04-02T00:39:49.183Z,290.79
2023-04-02T00:40:49.213Z,289.25
2023-04-02T00:41:49.227Z,287.99
2023-04-02T00:42:49.153Z,288.24
2023-04-02T00:43:49.119Z,285.49
2023-04-02T00:44:49.180Z,286.73
2023-04-02T00:45:49.203Z,289.51
2023-04-02T00:46:49.109Z,294.16
2023-04-02T00:47:49.153Z,298.70
2023-04-02T00:48:49.097Z,300.88
2023-04-02T00:49:49.082Z,304.22
2023-04-02T00:50:49.054Z,306.20
2023-04-02T00:51:49.104Z,309.36
2023-04-02T00:52:49.052Z,308.20
2023-04-02T00:53:49.088Z,307.05
2023-04-02T00:54:49.049Z,305.91
2023-04-02T00:55:48.973Z,306.77
2023-04-02T00:56:49.024Z,309.94
2023-04-02T00:57:48.962Z,309.94
2023-04-02T00:58:48.946Z,312.89
2023-04-02T00:59:48.936Z,314.98
2023-04-02T01:00:48.969Z,314.08
2023-04-02T01:01:49.061Z,313.78
2023-04-02T01:02:49.057Z,315.58
2023-04-02T01:03:48.885Z,313.18
2023-04-02T01:04:48.876Z,313.78
2023-04-02T01:05:48.834Z,319.26
2023-04-02T01:06:48.842Z,319.57
2023-04-02T01:07:48.844Z,323.97
2023-04-02T01:08:48.833Z,327.84
2023-04-02T01:09:48.825Z,333.48
2023-04-02T01:10:48.784Z,334.49
2023-04-02T01:11:48.771Z,335.52
2023-04-02T01:12:48.790Z,336.89
2023-04-02T01:13:48.736Z,340.37
2023-04-02T01:14:48.838Z,342.85
2023-04-02T01:15:48.801Z,338.27
2023-04-02T01:16:48.769Z,340.72
2023-04-02T01:17:48.956Z,342.85
2023-04-02T01:18:48.733Z,342.85
2023-04-02T01:19:48.654Z,342.85
2023-04-02T01:20:48.690Z,345.73
2023-04-02T01:21:48.638Z,347.56
2023-04-02T01:22:48.613Z,354.29
2023-04-02T01:23:48.676Z,358.53
2023-04-02T01:24:48.587Z,360.89
2023-04-02T01:25:48.625Z,364.08
2023-04-02T01:26:48.621Z,361.28
2023-04-02T01:27:48.565Z,363.67
2023-04-02T01:28:48.555Z,368.15
2023-04-02T01:29:52.327Z,375.71
2023-04-02T01:30:49.848Z,382.26
2023-04-02T01:31:57.469Z,389.37
2023-04-02T01:32:52.268Z,393.95
2023-04-02T01:33:49.149Z,392.57
2023-04-02T01:34:48.521Z,395.82
2023-04-02T01:35:48.482Z,400.32
2023-04-02T01:36:49.175Z,401.04
2023-04-02T01:37:50.602Z,400.08
2023-04-02T01:38:53.461Z,396.99
2023-04-02T01:39:57.871Z,395.82
2023-04-02T01:40:55.098Z,394.42
2023-04-02T01:41:54.500Z,391.65
2023-04-02T01:42:49.349Z,393.26
2023-04-02T01:43:51.381Z,396.29
2023-04-02T01:44:58.859Z,397.23
2023-04-02T01:45:53.298Z,399.84
2023-04-02T01:46:48.313Z,397.94
2023-04-02T01:47:49.289Z,407.63
2023-04-02T01:48:48.286Z,412.40
2023-04-02T01:49:48.277Z,421.23
2023-04-02T01:50:48.288Z,428.23
2023-04-02T01:51:48.251Z,435.20
2023-04-02T01:52:48.266Z,440.64
2023-04-02T01:53:48.246Z,445.92
2023-04-02T01:54:48.248Z,452.86
2023-04-02T01:55:48.211Z,458.45
2023-04-02T01:56:48.257Z,464.49
2023-04-02T01:57:48.174Z,467.74
2023-04-02T01:58:48.129Z,463.20
2023-04-02T01:59:48.246Z,462.88
2023-04-02T02:00:48.254Z,462.24
2023-04-02T02:01:48.161Z,464.49
2023-04-02T02:02:48.127Z,468.39
2023-04-02T02:03:48.059Z,476.73
2023-04-02T02:04:48.083Z,478.78
2023-04-02T02:05:48.042Z,482.92
2023-04-02T02:06:48.053Z,476.05
2023-04-02T02:07:48.011Z,476.73
2023-04-02T02:08:48.002Z,482.57
2023-04-02T02:09:48.011Z,482.23
2023-04-02T02:10:48.053Z,484.67
2023-04-02T02:11:47.994Z,491.43
2023-04-02T02:12:48.042Z,495.07
2023-04-02T02:13:47.954Z,502.50
2023-04-02T02:14:47.947Z,500.25
2023-04-02T02:15:47.904Z,502.12
2023-04-02T02:16:47.950Z,508.61
2023-04-02T02:17:47.959Z,504.77
2023-04-02T02:18:47.897Z,507.84
2023-04-02T02:19:47.868Z,507.84
2023-04-02T02:20:47.854Z,512.50
2023-04-02T02:21:47.864Z,516.86
2023-04-02T02:22:48.046Z,514.87
2023-04-02T02:23:47.821Z,522.10
2023-04-02T02:24:47.808Z,517.66
2023-04-02T02:25:47.830Z,514.87
2023-04-02T02:26:47.878Z,516.46
2023-04-02T02:27:47.778Z,518.86
2023-04-02T02:28:47.760Z,516.46
2023-04-02T02:29:47.756Z,519.67
2023-04-02T02:30:47.793Z,519.67
2023-04-02T02:31:47.829Z,519.67
2023-04-02T02:32:47.765Z,522.91
2023-04-02T02:33:47.680Z,529.53
2023-04-02T02:34:47.656Z,532.06
2023-04-02T02:35:47.649Z,539.35
2023-04-02T02:36:47.636Z,548.18
2023-04-02T02:37:47.625Z,549.98
2023-04-02T02:38:47.621Z,555.46
2023-04-02T02:39:47.593Z,553.62
2023-04-02T02:40:47.683Z,554.54
2023-04-02T02:41:47.589Z,555.00
2023-04-02T02:42:47.571Z,562.93
2023-04-02T02:43:47.546Z,561.05
2023-04-02T02:44:47.543Z,570.13
2023-04-02T02:45:47.537Z,575.52
2023-04-02T02:46:47.500Z,581.02
2023-04-02T02:47:47.519Z,579.01
2023-04-02T02:48:47.511Z,583.04
2023-04-02T02:49:47.593Z,588.16
2023-04-02T02:50:47.439Z,595.49
2023-04-02T02:51:47.446Z,600.30
2023-04-02T02:52:47.446Z,607.38
2023-04-02T02:53:47.421Z,605.73
2023-04-02T02:54:47.416Z,607.93
2023-04-02T02:55:47.380Z,610.15
2023-04-02T02:56:47.413Z,615.19
2023-04-02T02:57:47.330Z,620.32
2023-04-02T02:58:47.391Z,621.48
2023-04-02T02:59:47.350Z,614.06
2023-04-02T03:00:47.325Z,618.60
2023-04-02T03:01:47.361Z,612.38
2023-04-02T03:02:47.568Z,616.89
2023-04-02T03:03:47.627Z,610.15
2023-04-02T03:04:47.305Z,619.75
2023-04-02T03:05:47.268Z,624.38
2023-04-02T03:06:47.255Z,623.21
2023-04-02T03:07:47.218Z,628.48
2023-04-02T03:08:47.225Z,626.71
2023-04-02T03:09:47.202Z,630.25
2023-04-02T03:10:47.213Z,637.46
2023-04-02T03:11:47.210Z,648.58
2023-04-02T03:12:47.190Z,658.79
2023-04-02T03:13:47.133Z,664.68
2023-04-02T03:14:47.133Z,671.34
2023-04-02T03:15:47.139Z,678.83
2023-04-02T03:16:47.100Z,689.32
2023-04-02T03:17:47.116Z,690.03
2023-04-02T03:18:47.084Z,690.03
2023-04-02T03:19:47.052Z,687.90
2023-04-02T03:20:47.042Z,695.05
2023-04-02T03:21:47.048Z,694.33
2023-04-02T03:22:47.009Z,694.33
2023-04-02T03:23:47.010Z,697.22
2023-04-02T03:24:46.986Z,696.49
2023-04-02T03:25:47.021Z,700.87
2023-04-02T03:26:46.970Z,710.54
2023-04-02T03:27:46.935Z,718.16
2023-04-02T03:28:47.008Z,726.74
2023-04-02T03:29:46.924Z,728.32
2023-04-02T03:30:46.912Z,736.34
2023-04-02T03:31:46.976Z,734.72
2023-04-02T03:32:46.945Z,729.91
2023-04-02T03:33:46.887Z,729.12
2023-04-02T03:34:46.880Z,736.34
2023-04-02T03:35:46.841Z,739.59
2023-04-02T03:36:46.830Z,738.78
2023-04-02T03:37:46.864Z,737.15
2023-04-02T03:38:46.812Z,737.96
2023-04-02T03:39:46.801Z,735.53
2023-04-02T03:40:46.841Z,739.59
2023-04-02T03:41:46.786Z,732.31
2023-04-02T03:42:46.772Z,723.60
2023-04-02T03:43:46.765Z,732.31
2023-04-02T03:44:46.717Z,729.91
2023-04-02T03:45:46.700Z,744.53
2023-04-02T03:46:46.758Z,741.23
2023-04-02T03:47:46.795Z,749.86
2023-04-02T03:48:46.716Z,742.05
2023-04-02T03:49:46.670Z,746.19
2023-04-02T03:50:46.649Z,738.78
2023-04-02T03:51:46.685Z,744.53
2023-04-02T03:52:46.693Z,745.36
2023-04-02T03:53:46.741Z,751.54
2023-04-02T03:54:54.057Z,752.81
2023-04-02T03:55:46.594Z,748.60
2023-04-02T03:56:46.627Z,747.77
2023-04-02T03:57:46.542Z,747.85
2023-04-02T03:58:46.558Z,751.54
2023-04-02T03:59:47.300Z,767.03
2023-04-02T04:00:46.531Z,764.84
2023-04-02T04:01:46.548Z,767.91
2023-04-02T04:02:46.545Z,766.15
2023-04-02T04:03:46.506Z,769.23
2023-04-02T04:04:46.483Z,770.11
2023-04-02T04:05:46.483Z,775.01
2023-04-02T04:06:46.504Z,775.91
2023-04-02T04:07:46.418Z,779.07
2023-04-02T04:08:46.424Z,785.92
2023-04-02T04:09:46.394Z,786.85
2023-04-02T04:10:46.426Z,794.31
2023-04-02T04:11:46.385Z,792.43
2023-04-02T04:12:46.395Z,796.67
2023-04-02T04:13:46.350Z,801.91
2023-04-02T04:14:46.333Z,795.72
2023-04-02T04:15:46.318Z,800.00
2023-04-02T04:16:46.385Z,798.09
2023-04-02T04:17:46.346Z,807.23
2023-04-02T04:18:46.284Z,806.74
2023-04-02T04:19:46.282Z,808.69
2023-04-02T04:20:46.305Z,810.65
2023-04-02T04:21:46.264Z,813.60
2023-04-02T04:22:46.213Z,817.07
2023-04-02T04:23:46.223Z,819.07
2023-04-02T04:24:46.247Z,819.57
2023-04-02T04:25:46.190Z,824.61
2023-04-02T04:26:46.191Z,828.18
2023-04-02T04:27:46.195Z,823.09
2023-04-02T04:28:46.167Z,820.58
2023-04-02T04:29:46.176Z,820.58
2023-04-02T04:30:46.195Z,821.58
2023-04-02T04:31:46.253Z,816.08
2023-04-02T04:32:46.107Z,829.72
2023-04-02T04:33:46.097Z,835.93
2023-04-02T04:34:46.080Z,850.25
2023-04-02T04:35:46.082Z,861.74
2023-04-02T04:36:46.059Z,873.53
2023-04-02T04:37:46.044Z,874.10
2023-04-02T04:38:46.015Z,881.00
2023-04-02T04:39:46.006Z,874.67
2023-04-02T04:40:45.992Z,872.96
2023-04-02T04:41:46.032Z,871.83
2023-04-02T04:42:45.964Z,865.63
2023-04-02T04:43:45.946Z,855.14
2023-04-02T04:44:45.939Z,849.71
2023-04-02T04:45:46.007Z,848.64
2023-04-02T04:46:45.998Z,850.25
2023-04-02T04:47:45.934Z,860.08
2023-04-02T04:48:45.880Z,863.40
2023-04-02T04:49:45.875Z,869.00
2023-04-02T04:50:45.851Z,873.53
2023-04-02T04:51:45.847Z,869.00
2023-04-02T04:52:45.841Z,865.63
2023-04-02T04:53:45.817Z,861.18
2023-04-02T04:54:45.801Z,851.88
2023-04-02T04:55:45.840Z,846.49
2023-04-02T04:56:45.772Z,836.45
2023-04-02T04:57:45.748Z,835.93
2023-04-02T04:58:45.743Z,840.12
2023-04-02T04:59:45.766Z,842.24
2023-04-02T05:00:45.750Z,832.82
2023-04-02T05:01:45.731Z,833.85
2023-04-02T05:02:45.746Z,842.24
2023-04-02T05:03:45.687Z,850.79
2023-04-02T05:04:45.708Z,869.00
2023-04-02T05:05:45.649Z,874.67
2023-04-02T05:06:45.646Z,883.32
2023-04-02T05:07:45.630Z,889.18
2023-04-02T05:08:45.611Z,892.14
2023-04-02T05:09:45.614Z,899.93
2023-04-02T05:10:45.617Z,912.18
2023-04-02T05:11:45.588Z,917.18
2023-04-02T05:12:45.567Z,919.70
2023-04-02T05:13:45.544Z,920.96
2023-04-02T05:14:45.544Z,929.91
2023-04-02T05:15:45.601Z,926.69
2023-04-02T05:16:45.513Z,931.20
2023-04-02T05:17:45.560Z,933.80
2023-04-02T05:18:45.457Z,940.35
2023-04-02T05:19:45.530Z,939.03
2023-04-02T05:20:45.460Z,940.35
2023-04-02T05:21:45.495Z,929.91
2023-04-02T05:22:45.408Z,931.20
2023-04-02T05:23:45.429Z,940.35
2023-04-02T05:24:45.385Z,943.66
2023-04-02T05:25:45.386Z,947.00
2023-04-02T05:26:45.381Z,951.70
2023-04-02T05:27:45.371Z,951.03
2023-04-02T05:28:45.377Z,939.69
2023-04-02T05:29:45.338Z,932.50
2023-04-02T05:30:45.332Z,931.85
2023-04-02T05:31:45.418Z,930.55
2023-04-02T05:32:45.344Z,928.62
2023-04-02T05:33:45.310Z,927.34
2023-04-02T05:34:45.280Z,921.59
2023-04-02T05:35:45.270Z,917.81
2023-04-02T05:36:45.260Z,912.81
2023-04-02T05:37:45.238Z,895.12
2023-04-02T05:38:45.224Z,886.24
2023-04-02T05:39:45.223Z,888.59
2023-04-02T05:40:45.211Z,891.55
2023-04-02T05:41:45.199Z,894.53
2023-04-02T05:42:45.175Z,889.18
2023-04-02T05:43:45.176Z,881.58
2023-04-02T05:44:45.202Z,876.96
2023-04-02T05:45:45.140Z,869.57
2023-04-02T05:46:45.120Z,867.31
2023-04-02T05:47:45.122Z,874.67
2023-04-02T05:48:45.104Z,871.26
2023-04-02T05:49:45.098Z,872.96
2023-04-02T05:50:45.149Z,870.13
2023-04-02T05:51:45.045Z,872.96
2023-04-02T05:52:45.111Z,869.57
2023-04-02T05:53:45.068Z,865.07
2023-04-02T05:54:45.019Z,863.40
2023-04-02T05:55:45.015Z,854.05
2023-04-02T05:56:44.998Z,861.18
2023-04-02T05:57:54.844Z,861.18
2023-04-02T05:58:45.737Z,860.63
2023-04-02T05:59:44.980Z,861.18
2023-04-02T06:00:44.941Z,878.11
2023-04-02T06:01:45.056Z,889.18
2023-04-02T06:02:44.939Z,896.92
2023-04-02T06:03:45.036Z,911.56
2023-04-02T06:04:45.028Z,928.62
2023-04-02T06:05:44.867Z,944.33
2023-04-02T06:06:44.860Z,956.46
2023-04-02T06:07:44.874Z,968.91
2023-04-02T06:08:44.805Z,983.12
2023-04-02T06:09:44.903Z,1000.00
2023-04-02T06:10:44.924Z,996.28
2023-04-02T06:11:44.775Z,999.25
2023-04-02T06:12:44.799Z,998.51
2023-04-02T06:13:44.763Z,1000.00
2023-04-02T06:14:44.773Z,1026.82
2023-04-02T06:15:46.053Z,1044.43
2023-04-02T06:16:44.866Z,1050.98
2023-04-02T06:17:44.790Z,1053.46
2023-04-02T06:18:44.721Z,1066.03
2023-04-02T06:19:44.727Z,1079.77
2023-04-02T06:20:44.677Z,1087.66
2023-04-02T06:21:44.738Z,1093.88
2023-04-02T06:22:44.679Z,1102.88
2023-04-02T06:23:44.778Z,1101.07
2023-04-02T06:24:44.764Z,1112.03
2023-04-02T06:25:44.671Z,1127.00
2023-04-02T06:26:44.637Z,1151.20
2023-04-02T06:27:44.577Z,1180.62
2023-04-02T06:28:44.687Z,1208.30
2023-04-02T06:29:44.591Z,1233.89
2023-04-02T06:30:44.622Z,1262.96
2023-04-02T06:31:44.577Z,1279.85
2023-04-02T06:32:44.548Z,1294.69
2023-04-02T06:33:44.538Z,1330.69
2023-04-02T06:34:44.512Z,1333.33
2023-04-02T06:35:44.586Z,1359.03
2023-04-02T06:36:44.471Z,1357.65
2023-04-02T06:37:44.658Z,1375.77
2023-04-02T06:38:44.543Z,1381.44
2023-04-02T06:39:44.527Z,1394.38
2023-04-02T06:40:44.501Z,1419.49
2023-04-02T06:41:44.541Z,1422.51
2023-04-02T06:42:44.552Z,1424.02
2023-04-02T06:43:44.524Z,1427.05
2023-04-02T06:44:44.428Z,1431.62
2023-04-02T06:45:44.446Z,1410.53
2023-04-02T06:46:44.403Z,1414.99
2023-04-02T06:47:44.425Z,1397.29
2023-04-02T06:48:44.445Z,1410.53
2023-04-02T06:49:44.342Z,1425.53
2023-04-02T06:50:44.304Z,1436.23
2023-04-02T06:51:44.281Z,1434.69
2023-04-02T06:52:44.577Z,1454.94
2023-04-02T06:53:44.289Z,1425.53
2023-04-02T06:54:44.391Z,1450.22
2023-04-02T06:55:44.248Z,1445.52
2023-04-02T06:56:44.212Z,1459.69
2023-04-02T06:57:44.244Z,1482.30
2023-04-02T06:58:44.227Z,1487.24
2023-04-02T06:59:44.175Z,1483.94
2023-04-02T07:00:44.156Z,1488.89
2023-04-02T07:01:44.168Z,1512.42
2023-04-02T07:02:44.147Z,1480.66
2023-04-02T07:03:44.126Z,1466.08
2023-04-02T07:04:44.140Z,1475.77
2023-04-02T07:05:44.118Z,1493.87
2023-04-02T07:06:44.093Z,1496.37
2023-04-02T07:07:44.051Z,1517.55
2023-04-02T07:08:44.105Z,1502.24
2023-04-02T07:09:44.047Z,1507.31
2023-04-02T07:10:44.007Z,1521.86
2023-04-02T07:11:44.007Z,1497.21
2023-04-02T07:12:43.960Z,1533.18
2023-04-02T07:13:43.994Z,1513.27
2023-04-02T07:14:43.960Z,1517.55
2023-04-02T07:15:43.989Z,1506.46
2023-04-02T07:16:43.910Z,1500.56
2023-04-02T07:17:43.990Z,1511.56
2023-04-02T07:18:43.924Z,1493.87
2023-04-02T07:19:43.903Z,1483.94
2023-04-02T07:20:43.935Z,1482.30
2023-04-02T07:21:43.885Z,1505.62
2023-04-02T07:22:43.906Z,1500.56
2023-04-02T07:23:43.941Z,1474.15
2023-04-02T07:24:43.823Z,1461.29
2023-04-02T07:25:43.856Z,1483.94
2023-04-02T07:26:43.839Z,1502.24
2023-04-02T07:27:43.803Z,1464.48
2023-04-02T07:28:43.795Z,1485.59
2023-04-02T07:29:43.772Z,1451.79
2023-04-02T07:30:43.844Z,1488.89
2023-04-02T07:31:43.849Z,1480.66
2023-04-02T07:32:43.783Z,1477.40
2023-04-02T07:33:43.770Z,1464.48
2023-04-02T07:34:43.917Z,1469.30
2023-04-02T07:35:43.725Z,1469.30
2023-04-02T07:36:43.743Z,1502.24
2023-04-02T07:37:43.740Z,1505.62
2023-04-02T07:38:43.643Z,1492.20
2023-04-02T07:39:43.656Z,1503.93
2023-04-02T07:40:43.707Z,1511.56
2023-04-02T07:41:43.630Z,1516.69
2023-04-02T07:42:43.599Z,1521.86
2023-04-02T07:43:43.557Z,1502.24
2023-04-02T07:44:43.567Z,1505.62
2023-04-02T07:45:43.580Z,1512.42
2023-04-02T07:46:43.578Z,1531.43
2023-04-02T07:47:43.531Z,1580.19
2023-04-02T07:48:43.573Z,1596.19
2023-04-02T07:49:43.499Z,1620.31
2023-04-02T07:50:43.462Z,1665.63
2023-04-02T07:51:43.462Z,1690.85
2023-04-02T07:52:45.554Z,1699.43
2023-04-02T07:53:43.488Z,1708.09
2023-04-02T07:54:43.459Z,1753.93
2023-04-02T07:55:43.472Z,1784.29
2023-04-02T07:56:43.456Z,1815.72
2023-04-02T07:57:45.648Z,1819.42
2023-04-02T07:58:43.390Z,1850.83
2023-04-02T07:59:43.425Z,1883.34
2023-04-02T08:00:43.369Z,1936.42
2023-04-02T08:01:43.458Z,1957.63
2023-04-02T08:02:43.401Z,1944.85
2023-04-02T08:03:43.438Z,1939.22
2023-04-02T08:04:43.281Z,1942.03
2023-04-02T08:05:43.313Z,1935.02
2023-04-02T08:06:43.274Z,1930.83
2023-04-02T08:07:43.291Z,1947.67
2023-04-02T08:08:43.249Z,1963.37
2023-04-02T08:09:43.221Z,1963.37
2023-04-02T08:10:43.238Z,1985.19
2023-04-02T08:11:43.230Z,1979.32
2023-04-02T08:12:43.198Z,1986.66
2023-04-02T08:13:43.214Z,1997.02
2023-04-02T08:14:43.166Z,2015.04
2023-04-02T08:15:43.174Z,1988.13
2023-04-02T08:16:43.212Z,1973.49
2023-04-02T08:17:43.233Z,1983.71
2023-04-02T08:18:43.108Z,1989.61
2023-04-02T08:19:54.200Z,1997.02
2023-04-02T08:20:43.108Z,1991.08
2023-04-02T08:21:43.127Z,2000.00
2023-04-02T08:22:43.081Z,2013.52
2023-04-02T08:23:43.052Z,2016.55
2023-04-02T08:24:43.113Z,2013.52
2023-04-02T08:25:43.032Z,2041.13
2023-04-02T08:26:45.038Z,2074.30
2023-04-02T08:27:43.127Z,2082.36
2023-04-02T08:28:42.994Z,2088.85
2023-04-02T08:29:43.016Z,2080.75
2023-04-02T08:30:43.060Z,2071.10
2023-04-02T08:31:42.977Z,2052.07
2023-04-02T08:32:42.933Z,2031.84
2023-04-02T08:33:42.949Z,2034.93
2023-04-02T08:34:42.889Z,2038.02
2023-04-02T08:35:42.926Z,2056.79
2023-04-02T08:36:43.126Z,2050.50
2023-04-02T08:37:42.901Z,2030.30
2023-04-02T08:38:42.885Z,2045.80
2023-04-02T08:39:42.899Z,2024.17
2023-04-02T08:40:42.890Z,1983.71
2023-04-02T08:41:42.943Z,1967.69
2023-04-02T08:42:42.907Z,1988.13
2023-04-02T08:43:42.966Z,1991.08
2023-04-02T08:44:42.793Z,2000.00
2023-04-02T08:45:42.947Z,2019.59
2023-04-02T08:46:42.844Z,1976.40
2023-04-02T08:47:42.799Z,1980.78
2023-04-02T08:48:42.952Z,1963.37
2023-04-02T08:49:42.729Z,1977.86
2023-04-02T08:50:42.717Z,1985.19
2023-04-02T08:51:42.714Z,1979.32
2023-04-02T08:52:42.714Z,2005.99
2023-04-02T08:53:42.684Z,2027.23
2023-04-02T08:54:42.663Z,2087.23
2023-04-02T08:55:42.617Z,2085.60
2023-04-02T08:56:42.607Z,2128.67
2023-04-02T08:57:42.604Z,2142.29
2023-04-02T08:58:42.632Z,2133.76
2023-04-02T08:59:42.584Z,2145.72
2023-04-02T09:00:42.589Z,2137.16
2023-04-02T09:01:42.667Z,2161.29
2023-04-02T09:02:42.558Z,2168.28
2023-04-02T09:03:42.548Z,2187.75
2023-04-02T09:04:42.644Z,2189.54
2023-04-02T09:05:42.588Z,2194.92
2023-04-02T09:06:42.465Z,2209.40
2023-04-02T09:07:42.485Z,2196.72
2023-04-02T09:08:42.559Z,2185.97
2023-04-02T09:09:42.452Z,2213.05
2023-04-02T09:10:42.460Z,2238.93
2023-04-02T09:11:42.480Z,2225.91
2023-04-02T09:12:42.485Z,2207.58
2023-04-02T09:13:42.453Z,2184.19
2023-04-02T09:14:42.358Z,2173.56
2023-04-02T09:15:42.427Z,2175.32
2023-04-02T09:16:42.362Z,2164.78
2023-04-02T09:17:52.989Z,2178.86
2023-04-02T09:18:42.384Z,2157.81
2023-04-02T09:19:42.312Z,2189.54
2023-04-02T09:20:42.309Z,2196.72
2023-04-02T09:21:42.278Z,2175.32
2023-04-02T09:22:42.278Z,2150.88
2023-04-02T09:23:42.268Z,2173.56
2023-04-02T09:24:42.261Z,2173.56
2023-04-02T09:25:43.386Z,2166.53
2023-04-02T09:26:42.231Z,2156.07
2023-04-02T09:27:42.170Z,2164.78
2023-04-02T09:28:42.246Z,2137.16
2023-04-02T09:29:42.169Z,2163.03
2023-04-02T09:30:42.153Z,2168.28
2023-04-02T09:31:42.169Z,2193.13
2023-04-02T09:32:42.301Z,2227.76
2023-04-02T09:33:42.211Z,2269.26
2023-04-02T09:34:42.121Z,2304.39
2023-04-02T09:35:42.202Z,2342.66
2023-04-02T09:36:42.295Z,2380.11
2023-04-02T09:37:42.079Z,2420.96
2023-04-02T09:38:42.072Z,2420.96
2023-04-02T09:39:42.054Z,2488.39
2023-04-02T09:40:42.072Z,2490.71
2023-04-02T09:41:42.878Z,2507.02
2023-04-02T09:42:42.019Z,2533.08
2023-04-02T09:43:41.985Z,2523.54
2023-04-02T09:44:41.998Z,2562.14
2023-04-02T09:45:41.961Z,2574.45
2023-04-02T09:46:41.971Z,2609.54
2023-04-02T09:47:42.549Z,2658.73
2023-04-02T09:48:41.931Z,2729.12
2023-04-02T09:49:41.909Z,2760.04
2023-04-02T09:50:41.896Z,2838.98
2023-04-02T09:51:41.881Z,2938.60
2023-04-02T09:52:41.859Z,3021.42
2023-04-02T09:53:42.760Z,3175.35
2023-04-02T09:54:41.892Z,3320.94
2023-04-02T09:55:41.834Z,3433.70
2023-04-02T09:56:52.438Z,3503.27
2023-04-02T09:57:45.813Z,3592.49
2023-04-02T09:58:41.763Z,3648.74
2023-04-02T09:59:41.774Z,3831.31
2023-04-02T10:00:42.157Z,3944.08
2023-04-02T10:01:41.826Z,4123.08
2023-04-02T10:02:41.751Z,4167.96
2023-04-02T10:03:41.718Z,4207.22
2023-04-02T10:04:41.747Z,4167.96
2023-04-02T10:05:41.864Z,4167.96
2023-04-02T10:06:41.722Z,4091.60
2023-04-02T10:07:41.706Z,4024.02
2023-04-02T10:08:41.678Z,3958.64
2023-04-02T10:09:41.671Z,3895.35
2023-04-02T10:10:41.640Z,3872.83
2023-04-02T10:12:41.591Z,3766.69
2023-04-02T10:13:41.588Z,3828.57
2023-04-02T10:14:41.566Z,3878.44
2023-04-02T10:15:41.572Z,3895.35
2023-04-02T10:16:41.628Z,3935.39
2023-04-02T10:17:41.558Z,3926.74
2023-04-02T10:18:41.521Z,3958.64
2023-04-02T10:19:41.505Z,3867.24
2023-04-02T10:20:50.394Z,3872.83
2023-04-02T10:21:41.554Z,3845.05
2023-04-02T10:22:41.459Z,3801.42
2023-04-02T10:23:41.422Z,3694.00
2023-04-02T10:24:41.437Z,3624.07
2023-04-02T10:25:41.422Z,3547.32
2023-04-02T10:26:41.485Z,3507.85
2023-04-02T10:27:41.376Z,3503.27
2023-04-02T10:28:41.362Z,3544.97
2023-04-02T10:29:41.361Z,3526.31
2023-04-02T10:30:41.451Z,3604.57
2023-04-02T10:31:41.324Z,3666.21
2023-04-02T10:32:41.341Z,3653.72
2023-04-02T10:33:41.309Z,3681.32
2023-04-02T10:34:42.938Z,3732.59
2023-04-02T10:35:41.347Z,3777.31
2023-04-02T10:36:41.288Z,3861.67
2023-04-02T10:37:41.251Z,3967.43
2023-04-02T10:38:41.252Z,4036.14
2023-04-02T10:39:41.212Z,4054.46
2023-04-02T10:40:41.241Z,4011.98
2023-04-02T10:41:41.207Z,4030.07
2023-04-02T10:42:41.197Z,3973.31
2023-04-02T10:43:41.157Z,4017.99
2023-04-02T10:44:41.175Z,4082.25
2023-04-02T10:45:41.207Z,4051.40
2023-04-02T10:46:41.184Z,4057.53
2023-04-02T10:47:41.213Z,4060.61
2023-04-02T10:48:41.089Z,4011.98
2023-04-02T10:49:41.157Z,4005.98
2023-04-02T10:50:41.065Z,3973.31
2023-04-02T10:51:41.060Z,3985.13
2023-04-02T10:52:41.045Z,3958.64
2023-04-02T10:53:41.068Z,3895.35
2023-04-02T10:54:41.033Z,3872.83
2023-04-02T10:55:41.002Z,3870.04
2023-04-02T10:56:50.524Z,3875.63
2023-04-02T10:57:41.031Z,3836.79
2023-04-02T10:58:41.035Z,3782.64
2023-04-02T10:59:40.964Z,3732.59
2023-04-02T11:00:40.972Z,3732.59
2023-04-02T11:01:41.023Z,3686.38
2023-04-02T11:02:40.997Z,3691.46
2023-04-02T11:03:41.150Z,3666.21
2023-04-02T11:04:40.912Z,3653.72
2023-04-02T11:05:40.897Z,3648.74
2023-04-02T11:06:40.880Z,3631.44
2023-04-02T11:07:41.013Z,3575.72
2023-04-02T11:08:40.850Z,3485.04
2023-04-02T11:09:40.858Z,3467.01
2023-04-02T11:10:40.797Z,3427.11
2023-04-02T11:11:40.802Z,3356.29
2023-04-02T11:12:42.017Z,3350.00
2023-04-02T11:13:40.786Z,3331.26
2023-04-02T11:14:40.765Z,3343.73
2023-04-02T11:15:40.803Z,3354.19
2023-04-02T11:16:44.070Z,3354.19
2023-04-02T11:17:40.816Z,3314.78
2023-04-02T11:18:40.712Z,3331.26
2023-04-02T11:19:40.702Z,3347.91
2023-04-02T11:20:40.694Z,3356.29
2023-04-02T11:21:55.129Z,3364.72
2023-04-02T11:22:40.638Z,3354.19
2023-04-02T11:23:40.640Z,3381.70
2023-04-02T11:24:40.629Z,3366.83
2023-04-02T11:25:40.711Z,3364.72
2023-04-02T11:26:40.602Z,3362.61
2023-04-02T11:27:40.587Z,3339.56
2023-04-02T11:28:40.564Z,3331.26
2023-04-02T11:29:40.541Z,3316.83
2023-04-02T11:30:40.561Z,3341.65
2023-04-02T11:31:40.606Z,3316.83
2023-04-02T11:32:40.645Z,3306.60
2023-04-02T11:33:44.089Z,3320.94
2023-04-02T11:34:40.514Z,3304.56
2023-04-02T11:35:40.721Z,3268.29
2023-04-02T11:36:40.464Z,3306.60
2023-04-02T11:37:40.536Z,3274.28
2023-04-02T11:38:40.450Z,3304.56
2023-04-02T11:39:40.426Z,3352.09
2023-04-02T11:40:40.429Z,3375.31
2023-04-02T11:41:40.415Z,3388.12
2023-04-02T11:42:40.511Z,3438.10
2023-04-02T11:43:40.397Z,3414.01
2023-04-02T11:44:40.411Z,3396.70
2023-04-02T11:45:50.188Z,3431.50
2023-04-02T11:46:40.467Z,3435.90
2023-04-02T11:47:40.456Z,3494.13
2023-04-02T11:48:40.347Z,3485.04
2023-04-02T11:49:40.379Z,3489.58
2023-04-02T11:50:40.416Z,3507.85
2023-04-02T11:51:40.276Z,3467.01
2023-04-02T11:52:40.290Z,3462.53
2023-04-02T11:53:40.284Z,3449.16
2023-04-02T11:54:40.299Z,3405.34
2023-04-02T11:55:40.287Z,3388.12
2023-04-02T11:56:54.382Z,3398.86
2023-04-02T11:57:42.988Z,3375.31
2023-04-02T11:58:40.282Z,3420.55
2023-04-02T11:59:40.594Z,3411.84
2023-04-02T12:00:40.177Z,3438.10
2023-04-02T12:01:40.197Z,3429.30
2023-04-02T12:02:40.278Z,3438.10
2023-04-02T12:03:40.124Z,3411.84
2023-04-02T12:04:40.129Z,3416.19
2023-04-02T12:05:40.547Z,3414.01
2023-04-02T12:06:40.125Z,3398.86
2023-04-02T12:07:40.050Z,3364.72
2023-04-02T12:08:54.261Z,3304.56
2023-04-02T12:09:40.109Z,3270.29
2023-04-02T12:10:40.052Z,3278.29
2023-04-02T12:11:40.044Z,3300.49
2023-04-02T12:12:40.065Z,3337.48
2023-04-02T12:13:39.976Z,3337.48
2023-04-02T12:14:39.992Z,3350.00
2023-04-02T12:15:39.960Z,3360.50
2023-04-02T12:16:39.959Z,3377.44
2023-04-02T12:17:39.929Z,3424.92
2023-04-02T12:18:39.935Z,3407.50